Time;durP1;ratioP1;P1;durP2;ratioP2;P2;SDS_P1;SDS_P2;PMS_P1;PMS_P2;Temp;Humidity;BMP_temperature;BMP_pressure;BME280_temperature;BME280_humidity;BME280_pressure;Samples;Min_cycle;Max_cycle;Signal;HPM_P1;HPM_P2
2023/08/30 00:00:17;;;;;;;;;;;;;;;27.75;42.66;93707.97;5042089;28;9287;-61
2023/08/30 00:02:51;;;;;;;;;;;;;;;27.74;42.94;93700.94;5043348;28;7088;-61
2023/08/30 00:06:01;;;;;;;;;;;;;;;27.75;42.64;93696.91;5056770;28;9060;-60
2023/08/30 00:08:28;;;;;;;;;;;;;;;27.73;42.24;93693.94;4991845;28;7337;-61
2023/08/30 00:10:58;;;;;;;;;;;;;;;27.73;42.76;93702.25;5007777;28;9071;-60
2023/08/30 00:13:26;;;;;;;;;;;;;;;27.72;42.84;93703.50;4989905;28;7267;-61
2023/08/30 00:15:52;;;;;;;;;;;;;;;27.71;43.00;93705.53;5004999;28;6968;-61
2023/08/30 00:18:21;;;;;;;;;;;;;;;27.69;42.99;93696.31;5003807;28;7088;-60
2023/08/30 00:20:50;;;;;;;;;;;;;;;27.70;42.73;93700.53;4995421;28;7205;-60
2023/08/30 00:23:29;;;;;;;;;;;;;;;27.67;42.92;93701.63;5002109;28;7480;-60
2023/08/30 00:26:04;;;;;;;;;;;;;;;27.69;42.55;93699.09;5001484;28;9116;-61
2023/08/30 00:28:39;;;;;;;;;;;;;;;27.66;42.71;93695.38;5000275;28;7332;-61
2023/08/30 00:31:07;;;;;;;;;;;;;;;27.68;43.01;93692.06;4990969;28;8986;-60
2023/08/30 00:33:35;;;;;;;;;;;;;;;27.66;42.76;93683.56;4979635;28;9088;-61
2023/08/30 00:36:04;;;;;;;;;;;;;;;27.65;43.02;93688.34;4995004;28;7309;-61
2023/08/30 00:38:35;;;;;;;;;;;;;;;27.65;42.61;93691.13;5021596;28;7413;-61
2023/08/30 00:41:21;;;;;;;;;;;;;;;27.65;42.99;93688.34;5036860;28;6995;-61
2023/08/30 00:43:56;;;;;;;;;;;;;;;27.64;42.79;93687.59;5052499;28;7024;-61
2023/08/30 00:46:23;;;;;;;;;;;;;;;27.66;42.86;93689.09;5054021;28;7360;-61
2023/08/30 00:48:50;;;;;;;;;;;;;;;27.62;43.02;93684.66;5043013;28;6985;-61
2023/08/30 00:51:22;;;;;;;;;;;;;;;27.62;42.74;93684.66;5038460;28;7280;-61
2023/08/30 00:53:55;;;;;;;;;;;;;;;27.61;42.79;93688.72;5050266;28;7004;-61
2023/08/30 00:56:21;;;;;;;;;;;;;;;27.61;42.89;93685.94;5037854;28;9494;-60
2023/08/30 00:58:49;;;;;;;;;;;;;;;27.61;42.75;93693.47;5054415;28;7335;-61
2023/08/30 01:01:18;;;;;;;;;;;;;;;27.60;42.81;93692.00;5050732;28;9096;-61
2023/08/30 01:03:44;;;;;;;;;;;;;;;27.59;42.61;93685.75;5043337;28;9408;-61
2023/08/30 01:06:19;;;;;;;;;;;;;;;27.58;43.07;93689.03;5045201;28;9351;-62
2023/08/30 01:08:51;;;;;;;;;;;;;;;27.56;42.78;93680.53;5037359;28;7259;-61
2023/08/30 01:12:03;;;;;;;;;;;;;;;27.56;43.08;93686.06;5047819;28;8308;-61
2023/08/30 01:15:18;;;;;;;;;;;;;;;27.55;43.05;93690.13;4986336;28;7329;-61
2023/08/30 01:17:57;;;;;;;;;;;;;;;27.55;43.02;93679.81;4972102;28;7186;-61
2023/08/30 01:20:38;;;;;;;;;;;;;;;27.52;43.08;93678.13;4963075;28;7245;-61
2023/08/30 01:23:15;;;;;;;;;;;;;;;27.54;42.92;93678.31;4982056;28;9081;-61
2023/08/30 01:26:34;;;;;;;;;;;;;;;27.56;42.91;93681.28;4989550;28;6984;-61
2023/08/30 01:29:39;;;;;;;;;;;;;;;27.56;42.98;93678.53;4979948;28;7011;-61
2023/08/30 01:32:15;;;;;;;;;;;;;;;27.59;42.66;93673.94;4973562;28;9075;-61
2023/08/30 01:34:58;;;;;;;;;;;;;;;27.56;43.00;93675.75;4989338;28;8456;-61
2023/08/30 01:37:25;;;;;;;;;;;;;;;27.53;42.94;93667.84;4990292;28;7182;-61
2023/08/30 01:40:01;;;;;;;;;;;;;;;27.52;43.07;93658.78;4963483;28;9060;-61
2023/08/30 01:42:42;;;;;;;;;;;;;;;27.54;43.54;93666.53;4974350;28;9473;-61
2023/08/30 01:45:20;;;;;;;;;;;;;;;27.54;43.08;93667.28;4973937;28;7239;-61
2023/08/30 01:48:09;;;;;;;;;;;;;;;27.50;42.96;93661.34;4990933;28;7226;-61
2023/08/30 01:50:43;;;;;;;;;;;;;;;27.54;43.11;93670.03;4997446;28;7167;-61
2023/08/30 01:53:12;;;;;;;;;;;;;;;27.53;43.18;93663.03;5032981;28;9125;-61
2023/08/30 01:55:40;;;;;;;;;;;;;;;27.53;42.66;93663.03;5050678;28;7987;-62
2023/08/30 01:58:20;;;;;;;;;;;;;;;27.52;42.93;93660.81;5049607;28;7254;-61
2023/08/30 02:00:55;;;;;;;;;;;;;;;27.52;43.31;93661.56;5044480;28;7287;-61
2023/08/30 02:03:23;;;;;;;;;;;;;;;27.53;42.52;93662.31;5052715;28;7248;-62
2023/08/30 02:06:17;;;;;;;;;;;;;;;27.52;43.05;93647.75;5042771;28;7088;-62
2023/08/30 02:09:06;;;;;;;;;;;;;;;27.50;42.67;93655.09;5046311;28;9033;-61
2023/08/30 02:11:41;;;;;;;;;;;;;;;27.49;43.09;93657.09;5044728;28;7193;-61
2023/08/30 02:14:44;;;;;;;;;;;;;;;27.49;42.90;93648.09;5036957;28;7118;-63
2023/08/30 02:17:11;;;;;;;;;;;;;;;27.48;43.10;93652.88;5042746;28;9327;-64
2023/08/30 02:19:40;;;;;;;;;;;;;;;27.47;42.84;93643.09;5045238;28;7386;-64
2023/08/30 02:22:17;;;;;;;;;;;;;;;27.48;43.13;93643.84;5040341;28;9136;-64
2023/08/30 02:25:04;;;;;;;;;;;;;;;27.47;43.19;93645.13;5045311;28;7763;-64
2023/08/30 02:27:40;;;;;;;;;;;;;;;27.45;43.30;93648.41;5055847;28;7044;-63
2023/08/30 02:30:27;;;;;;;;;;;;;;;27.45;43.12;93640.13;5047580;28;7003;-63
2023/08/30 02:32:53;;;;;;;;;;;;;;;27.44;43.01;93644.19;5057072;28;7000;-64
2023/08/30 02:35:23;;;;;;;;;;;;;;;27.42;43.07;93646.75;5053029;28;6993;-64
2023/08/30 02:38:17;;;;;;;;;;;;;;;27.44;43.23;93641.44;5038442;28;7503;-64
2023/08/30 02:40:52;;;;;;;;;;;;;;;27.43;43.18;93644.72;5007201;28;7379;-63
2023/08/30 02:43:28;;;;;;;;;;;;;;;27.44;42.71;93640.69;5003306;28;7231;-63
2023/08/30 02:46:05;;;;;;;;;;;;;;;27.45;42.59;93637.38;4999494;28;7065;-63
2023/08/30 02:48:52;;;;;;;;;;;;;;;27.44;42.97;93638.66;4969633;28;8640;-63
2023/08/30 02:51:19;;;;;;;;;;;;;;;27.43;43.12;93634.41;5011645;28;6978;-63
2023/08/30 02:53:45;;;;;;;;;;;;;;;27.44;43.31;93630.38;4984148;28;7241;-63
2023/08/30 02:56:13;;;;;;;;;;;;;;;27.47;42.87;93634.09;4988768;28;9065;-63
2023/08/30 02:58:50;;;;;;;;;;;;;;;27.40;43.06;93630.00;4982933;28;8791;-63
2023/08/30 03:01:46;;;;;;;;;;;;;;;27.41;42.98;93634.22;5006065;28;7104;-63
2023/08/30 03:04:46;;;;;;;;;;;;;;;27.40;42.95;93632.75;4956689;28;9289;-63
2023/08/30 03:07:13;;;;;;;;;;;;;;;27.42;42.95;93638.47;4948541;28;9058;-63
2023/08/30 03:09:41;;;;;;;;;;;;;;;27.45;42.84;93636.63;4938998;28;9010;-64
2023/08/30 03:12:18;;;;;;;;;;;;;;;27.47;43.27;93634.09;4932530;28;7256;-64
2023/08/30 03:15:04;;;;;;;;;;;;;;;27.50;43.00;93630.97;4938365;28;7251;-64
2023/08/30 03:17:45;;;;;;;;;;;;;;;27.51;42.66;93632.44;4965687;28;7380;-63
2023/08/30 03:20:44;;;;;;;;;;;;;;;27.52;42.69;93625.66;4977300;28;9340;-63
2023/08/30 03:23:31;;;;;;;;;;;;;;;27.53;42.47;93626.41;4954779;28;7260;-64
2023/08/30 03:25:58;;;;;;;;;;;;;;;27.49;42.96;93629.47;4955087;28;7087;-61
2023/08/30 03:28:27;;;;;;;;;;;;;;;27.49;42.97;93626.72;4954379;28;8845;-61
2023/08/30 03:30:54;;;;;;;;;;;;;;;27.53;42.33;93632.63;4954493;28;7273;-62
2023/08/30 03:33:22;;;;;;;;;;;;;;;27.51;42.76;93626.91;4952813;28;9045;-62
2023/08/30 03:35:48;;;;;;;;;;;;;;;27.52;42.25;93631.19;4951631;28;7009;-61
2023/08/30 03:38:14;;;;;;;;;;;;;;;27.52;42.92;93625.66;4935583;28;7217;-61
2023/08/30 03:40:53;;;;;;;;;;;;;;;27.52;42.37;93635.94;4966186;28;7241;-61
2023/08/30 03:43:21;;;;;;;;;;;;;;;27.52;42.81;93635.94;4977058;28;8807;-61
2023/08/30 03:46:21;;;;;;;;;;;;;;;27.50;42.92;93639.25;4992664;28;8361;-61
2023/08/30 03:49:01;;;;;;;;;;;;;;;27.49;42.96;93643.28;4973232;28;7068;-61
2023/08/30 03:51:29;;;;;;;;;;;;;;;27.48;42.68;93633.53;4973719;28;7239;-61
2023/08/30 03:54:00;;;;;;;;;;;;;;;27.48;42.81;93644.59;4960817;28;8715;-61
2023/08/30 03:56:29;;;;;;;;;;;;;;;27.50;42.96;93647.56;4962817;28;6998;-61
2023/08/30 03:58:56;;;;;;;;;;;;;;;27.48;42.40;93649.38;4985212;28;7262;-61
2023/08/30 04:01:21;;;;;;;;;;;;;;;27.46;42.68;93644.41;5012903;28;7236;-61
2023/08/30 04:03:49;;;;;;;;;;;;;;;27.49;42.64;93648.09;5004322;28;9219;-61
2023/08/30 04:06:24;;;;;;;;;;;;;;;27.49;43.28;93643.28;5012452;28;7284;-61
2023/08/30 04:09:00;;;;;;;;;;;;;;;27.49;42.79;93642.56;5012353;28;9106;-61
2023/08/30 04:11:37;;;;;;;;;;;;;;;27.48;42.84;93649.38;5024039;28;7904;-61
2023/08/30 04:14:04;;;;;;;;;;;;;;;27.47;42.99;93650.66;5000384;28;9738;-61
2023/08/30 04:17:01;;;;;;;;;;;;;;;27.48;42.67;93644.59;5016892;28;9571;-61
2023/08/30 04:19:35;;;;;;;;;;;;;;;27.47;42.58;93639.63;4967723;28;7200;-61
2023/08/30 04:22:02;;;;;;;;;;;;;;;27.45;42.89;93642.91;4993104;28;8706;-63
2023/08/30 04:25:04;;;;;;;;;;;;;;;27.48;42.74;93644.59;4989334;28;7229;-61
2023/08/30 04:27:41;;;;;;;;;;;;;;;27.51;42.69;93640.72;4937936;28;7019;-61
2023/08/30 04:30:17;;;;;;;;;;;;;;;27.49;42.44;93629.47;4930228;28;7157;-62
2023/08/30 04:32:54;;;;;;;;;;;;;;;27.47;42.79;93625.81;4932837;28;7609;-62
2023/08/30 04:35:20;;;;;;;;;;;;;;;27.48;42.88;93633.53;4930694;28;8740;-61
2023/08/30 04:37:48;;;;;;;;;;;;;;;27.47;42.74;93636.84;4947717;28;9123;-60
2023/08/30 04:40:14;;;;;;;;;;;;;;;27.45;42.57;93634.63;4947219;28;8513;-61
2023/08/30 04:42:40;;;;;;;;;;;;;;;27.42;42.52;93629.44;4946094;28;7085;-61
2023/08/30 04:45:12;;;;;;;;;;;;;;;27.45;42.89;93637.38;4933150;28;8746;-61
2023/08/30 04:47:42;;;;;;;;;;;;;;;27.40;42.61;93632.75;4926656;29;8831;-61
2023/08/30 04:50:13;;;;;;;;;;;;;;;27.45;42.69;93634.63;4949718;28;8739;-61
2023/08/30 04:52:45;;;;;;;;;;;;;;;27.45;42.50;93631.09;4948618;28;9174;-60
2023/08/30 04:55:16;;;;;;;;;;;;;;;27.44;42.53;93630.38;4940979;28;6987;-61
2023/08/30 04:58:07;;;;;;;;;;;;;;;27.42;42.56;93638.47;4966496;28;9020;-61
2023/08/30 05:00:34;;;;;;;;;;;;;;;27.39;42.41;93634.03;4989050;28;8642;-60
2023/08/30 05:03:00;;;;;;;;;;;;;;;27.40;43.20;93638.28;5042984;28;8898;-61
2023/08/30 05:05:26;;;;;;;;;;;;;;;27.38;42.50;93629.75;5052175;28;7237;-60
2023/08/30 05:07:54;;;;;;;;;;;;;;;27.35;42.60;93630.09;5046243;28;6956;-62
2023/08/30 05:10:23;;;;;;;;;;;;;;;27.34;41.82;93631.38;5038602;28;7260;-61
2023/08/30 05:12:51;;;;;;;;;;;;;;;27.32;42.15;93634.66;5048446;28;7697;-60
2023/08/30 05:15:21;;;;;;;;;;;;;;;27.28;42.31;93639.03;5055976;28;7030;-60
2023/08/30 05:17:47;;;;;;;;;;;;;;;27.26;42.18;93636.09;5037189;28;8187;-60
2023/08/30 05:20:14;;;;;;;;;;;;;;;27.25;42.31;93634.63;5039226;28;7591;-60
2023/08/30 05:22:40;;;;;;;;;;;;;;;27.25;42.24;93634.63;5038598;28;7053;-61
2023/08/30 05:25:06;;;;;;;;;;;;;;;27.24;42.34;93630.38;5043377;28;9063;-61
2023/08/30 05:27:32;;;;;;;;;;;;;;;27.23;42.16;93629.63;5038989;28;6970;-60
2023/08/30 05:29:58;;;;;;;;;;;;;;;27.20;42.63;93624.44;5035692;28;9144;-61
2023/08/30 05:32:24;;;;;;;;;;;;;;;27.23;42.29;93615.81;5045284;28;7130;-61
2023/08/30 05:34:54;;;;;;;;;;;;;;;27.21;42.38;93612.84;5035836;28;7207;-61
2023/08/30 05:37:21;;;;;;;;;;;;;;;27.18;42.39;93624.25;5038334;28;9263;-61
2023/08/30 05:39:57;;;;;;;;;;;;;;;27.16;42.30;93626.81;5045774;28;7128;-60
2023/08/30 05:42:31;;;;;;;;;;;;;;;27.12;42.63;93626.41;5035393;28;7362;-61
2023/08/30 05:45:29;;;;;;;;;;;;;;;27.14;42.46;93632.88;5053221;28;9348;-63
2023/08/30 05:48:06;;;;;;;;;;;;;;;27.12;42.55;93629.16;5008463;28;9125;-63
2023/08/30 05:50:40;;;;;;;;;;;;;;;27.12;42.59;93627.13;5018162;28;6981;-64
2023/08/30 05:53:31;;;;;;;;;;;;;;;27.14;42.56;93629.38;5011223;28;7207;-63
2023/08/30 05:55:59;;;;;;;;;;;;;;;27.09;42.72;93628.22;5025836;28;7267;-63
2023/08/30 05:58:36;;;;;;;;;;;;;;;27.09;42.52;93633.75;5011434;28;9208;-64
2023/08/30 06:01:39;;;;;;;;;;;;;;;27.10;42.76;93635.22;5015443;28;7251;-64
2023/08/30 06:04:07;;;;;;;;;;;;;;;27.10;42.30;93637.25;4933562;28;9512;-64
2023/08/30 06:06:34;;;;;;;;;;;;;;;27.07;42.82;93625.25;4949578;28;7654;-63
2023/08/30 06:09:03;;;;;;;;;;;;;;;27.06;42.48;93634.81;4936122;28;7057;-64
2023/08/30 06:11:42;;;;;;;;;;;;;;;27.09;42.88;93642.03;4935354;28;7058;-64
2023/08/30 06:14:13;;;;;;;;;;;;;;;27.08;42.74;93637.78;4953735;28;7159;-64
2023/08/30 06:16:44;;;;;;;;;;;;;;;27.09;42.73;93646.81;4944194;28;9035;-64
2023/08/30 06:19:13;;;;;;;;;;;;;;;27.08;42.60;93648.09;4952890;28;7852;-64
2023/08/30 06:21:39;;;;;;;;;;;;;;;27.09;43.03;93647.53;4953254;28;7247;-64
2023/08/30 06:24:08;;;;;;;;;;;;;;;27.10;42.99;93651.06;4943571;28;8636;-64
2023/08/30 06:26:36;;;;;;;;;;;;;;;27.07;42.85;93641.81;4976342;28;7175;-64
2023/08/30 06:29:18;;;;;;;;;;;;;;;27.09;43.06;93642.03;4980554;28;8821;-64
2023/08/30 06:31:45;;;;;;;;;;;;;;;27.05;42.80;93641.63;4969241;28;7062;-64
2023/08/30 06:34:45;;;;;;;;;;;;;;;27.06;43.14;93643.09;4959466;28;9149;-64
2023/08/30 06:37:19;;;;;;;;;;;;;;;27.02;42.93;93639.94;4931106;28;8511;-64
2023/08/30 06:40:03;;;;;;;;;;;;;;;27.03;42.93;93641.44;4975287;28;7186;-64
2023/08/30 06:43:03;;;;;;;;;;;;;;;27.06;43.27;93651.38;4982183;28;7062;-64
2023/08/30 06:45:39;;;;;;;;;;;;;;;27.01;43.05;93637.72;4942756;28;7187;-64
2023/08/30 06:48:36;;;;;;;;;;;;;;;27.07;43.09;93650.09;4930516;29;9491;-64
2023/08/30 06:51:11;;;;;;;;;;;;;;;27.06;43.16;93651.38;4938556;28;9033;-64
2023/08/30 06:53:37;;;;;;;;;;;;;;;27.08;42.97;93650.84;4930978;28;7271;-64
2023/08/30 06:56:17;;;;;;;;;;;;;;;27.06;42.74;93654.13;4948376;28;7387;-63
2023/08/30 06:58:43;;;;;;;;;;;;;;;27.05;42.86;93655.44;4953525;28;7174;-64
2023/08/30 07:01:09;;;;;;;;;;;;;;;27.03;43.34;93652.47;4951687;28;7311;-64
2023/08/30 07:03:44;;;;;;;;;;;;;;;27.05;42.59;93649.91;4951781;28;7176;-64
2023/08/30 07:06:24;;;;;;;;;;;;;;;27.04;43.25;93653.94;4954504;28;7264;-64
2023/08/30 07:09:09;;;;;;;;;;;;;;;27.07;43.16;93652.13;4934453;28;9436;-64
2023/08/30 07:11:36;;;;;;;;;;;;;;;27.09;42.92;93653.06;4934715;28;7534;-64
2023/08/30 07:14:14;;;;;;;;;;;;;;;27.09;42.80;93650.31;4967399;28;7251;-64
2023/08/30 07:16:41;;;;;;;;;;;;;;;27.04;43.14;93648.41;4948521;28;7272;-64
2023/08/30 07:19:09;;;;;;;;;;;;;;;27.05;43.07;93652.66;4956624;28;9179;-64
2023/08/30 07:22:16;;;;;;;;;;;;;;;27.03;43.08;93652.47;5005318;28;7263;-64
2023/08/30 07:24:45;;;;;;;;;;;;;;;27.00;43.20;93650.78;4946822;28;9104;-64
2023/08/30 07:27:21;;;;;;;;;;;;;;;27.04;43.02;93655.94;4940980;28;7993;-64
2023/08/30 07:29:52;;;;;;;;;;;;;;;27.03;43.21;93648.97;4920052;28;7316;-64
2023/08/30 07:32:29;;;;;;;;;;;;;;;27.03;42.62;93657.97;4938410;28;7255;-64
2023/08/30 07:35:09;;;;;;;;;;;;;;;27.01;43.27;93649.50;4943876;28;7631;-64
2023/08/30 07:37:45;;;;;;;;;;;;;;;27.02;43.29;93639.94;4928124;28;6975;-64
2023/08/30 07:40:50;;;;;;;;;;;;;;;27.00;43.27;93650.03;4937165;28;7575;-64
2023/08/30 07:43:24;;;;;;;;;;;;;;;27.01;42.94;93649.50;4928401;28;7258;-64
2023/08/30 07:45:50;;;;;;;;;;;;;;;27.01;43.35;93643.97;4950887;28;9375;-64
2023/08/30 07:48:42;;;;;;;;;;;;;;;27.00;43.20;93644.50;4952562;28;7548;-64
2023/08/30 07:51:08;;;;;;;;;;;;;;;27.01;43.30;93649.50;4953903;28;8630;-64
2023/08/30 07:54:04;;;;;;;;;;;;;;;27.02;43.00;93650.97;4942679;28;7263;-64
2023/08/30 07:56:56;;;;;;;;;;;;;;;27.03;43.12;93657.25;4934212;28;7285;-64
2023/08/30 07:59:23;;;;;;;;;;;;;;;27.01;43.25;93649.50;4941767;28;9241;-64
2023/08/30 08:02:09;;;;;;;;;;;;;;;27.02;43.13;93645.44;4951644;28;8735;-64
2023/08/30 08:04:35;;;;;;;;;;;;;;;27.07;42.99;93652.88;4951849;28;7361;-64
2023/08/30 08:07:05;;;;;;;;;;;;;;;27.05;43.18;93641.63;4949462;28;7321;-64
2023/08/30 08:09:35;;;;;;;;;;;;;;;27.10;43.52;93646.25;4939097;28;7348;-65
2023/08/30 08:12:16;;;;;;;;;;;;;;;27.09;42.85;93644.78;4936598;28;7288;-64
2023/08/30 08:14:43;;;;;;;;;;;;;;;27.11;42.68;93642.22;4977530;28;7218;-64
2023/08/30 08:17:11;;;;;;;;;;;;;;;27.14;43.04;93646.69;4981265;28;8349;-64
2023/08/30 08:19:42;;;;;;;;;;;;;;;27.12;42.83;93649.22;4979859;28;7081;-64
2023/08/30 08:22:11;;;;;;;;;;;;;;;27.11;43.23;93650.50;4974834;28;6985;-65
2023/08/30 08:24:43;;;;;;;;;;;;;;;27.13;43.20;93650.72;4970281;28;7054;-64
2023/08/30 08:27:25;;;;;;;;;;;;;;;27.14;42.84;93646.69;4984895;28;7363;-65
2023/08/30 08:30:15;;;;;;;;;;;;;;;27.11;42.97;93642.22;4975137;28;8750;-64
2023/08/30 08:32:45;;;;;;;;;;;;;;;27.09;43.07;93653.06;4998331;28;7355;-65
2023/08/30 08:35:20;;;;;;;;;;;;;;;27.08;42.86;93654.34;5044071;28;7546;-64
2023/08/30 08:37:46;;;;;;;;;;;;;;;27.08;43.06;93653.63;5060361;28;8934;-65
2023/08/30 08:40:12;;;;;;;;;;;;;;;27.09;43.07;93661.34;5041474;28;7033;-65
2023/08/30 08:42:39;;;;;;;;;;;;;;;27.12;43.10;93659.53;5055520;28;7352;-65
2023/08/30 08:45:25;;;;;;;;;;;;;;;27.10;43.05;93657.28;5061079;28;8829;-65
2023/08/30 08:47:57;;;;;;;;;;;;;;;27.10;42.99;93657.28;5047132;28;9234;-65
2023/08/30 08:50:28;;;;;;;;;;;;;;;27.11;42.84;93658.03;5057239;28;7275;-65
2023/08/30 08:52:57;;;;;;;;;;;;;;;27.11;42.51;93663.56;5053766;28;7013;-64
2023/08/30 08:55:30;;;;;;;;;;;;;;;27.12;42.77;93657.50;5050459;28;7284;-65
2023/08/30 08:58:03;;;;;;;;;;;;;;;27.12;42.72;93663.00;5060486;28;7179;-64
2023/08/30 09:00:31;;;;;;;;;;;;;;;27.13;43.13;93661.75;5068356;28;7294;-65
2023/08/30 09:03:07;;;;;;;;;;;;;;;27.13;42.97;93661.75;5045679;28;7225;-65
2023/08/30 09:05:33;;;;;;;;;;;;;;;27.15;42.65;93663.97;5054946;28;8991;-65
2023/08/30 09:08:25;;;;;;;;;;;;;;;27.17;42.87;93664.91;5057004;28;9195;-65
2023/08/30 09:10:52;;;;;;;;;;;;;;;27.12;42.99;93663.00;5038644;28;7179;-65
2023/08/30 09:13:24;;;;;;;;;;;;;;;27.11;42.97;93656.03;5056818;28;9270;-65
2023/08/30 09:15:50;;;;;;;;;;;;;;;27.14;42.84;93668.75;5044042;28;9243;-62
2023/08/30 09:18:17;;;;;;;;;;;;;;;27.14;43.34;93666.00;5040780;28;8983;-62
2023/08/30 09:20:50;;;;;;;;;;;;;;;27.12;42.77;93668.53;5039668;28;7320;-62
2023/08/30 09:23:21;;;;;;;;;;;;;;;27.14;43.11;93668.03;5043352;28;9086;-62
2023/08/30 09:25:57;;;;;;;;;;;;;;;27.15;42.76;93670.22;5042611;28;8698;-61
2023/08/30 09:28:43;;;;;;;;;;;;;;;27.16;42.89;93670.97;5042846;28;9114;-62
2023/08/30 09:31:21;;;;;;;;;;;;;;;27.15;42.70;93675.75;5040930;28;6995;-62
2023/08/30 09:33:56;;;;;;;;;;;;;;;27.14;42.45;93668.03;5035831;28;7027;-62
2023/08/30 09:36:46;;;;;;;;;;;;;;;27.14;42.80;93671.53;5054041;28;7353;-62
2023/08/30 09:39:22;;;;;;;;;;;;;;;27.13;42.90;93664.50;5076083;28;7212;-62
2023/08/30 09:42:00;;;;;;;;;;;;;;;27.12;43.05;93667.81;5056392;28;6985;-62
2023/08/30 09:44:29;;;;;;;;;;;;;;;27.12;42.81;93665.78;5058279;28;7209;-62
2023/08/30 09:47:13;;;;;;;;;;;;;;;27.12;42.86;93670.56;5050153;28;7057;-62
2023/08/30 09:49:56;;;;;;;;;;;;;;;27.12;42.90;93665.78;5068340;28;7422;-62
2023/08/30 09:52:27;;;;;;;;;;;;;;;27.12;42.65;93668.53;5057285;28;9553;-63
2023/08/30 09:54:56;;;;;;;;;;;;;;;27.11;42.75;93667.06;5049630;28;7001;-63
2023/08/30 09:57:29;;;;;;;;;;;;;;;27.13;42.90;93661.00;5048691;28;9169;-62
2023/08/30 10:00:05;;;;;;;;;;;;;;;27.12;42.75;93657.50;5051218;28;9065;-62
2023/08/30 10:02:41;;;;;;;;;;;;;;;27.15;43.10;93658.44;5054047;28;7223;-62
2023/08/30 10:05:08;;;;;;;;;;;;;;;27.16;43.09;93655.16;5042615;28;7335;-62
2023/08/30 10:07:38;;;;;;;;;;;;;;;27.17;43.09;93655.88;5040352;28;8743;-63
2023/08/30 10:10:10;;;;;;;;;;;;;;;27.18;43.65;93655.38;5042031;28;6990;-62
2023/08/30 10:12:38;;;;;;;;;;;;;;;27.22;43.77;93655.75;5041819;28;9389;-63
2023/08/30 10:15:39;;;;;;;;;;;;;;;27.22;43.54;93653.00;5051004;28;7097;-63
2023/08/30 10:18:21;;;;;;;;;;;;;;;27.18;44.12;93647.06;5015819;28;8117;-62
2023/08/30 10:21:09;;;;;;;;;;;;;;;27.19;43.73;93648.53;5028748;28;7062;-63
2023/08/30 10:23:42;;;;;;;;;;;;;;;27.21;43.96;93646.00;5015992;28;7239;-62
2023/08/30 10:26:19;;;;;;;;;;;;;;;27.27;44.37;93643.84;5013351;28;7602;-62
2023/08/30 10:28:47;;;;;;;;;;;;;;;27.25;44.47;93634.63;5025086;28;8805;-61
2023/08/30 10:31:28;;;;;;;;;;;;;;;27.26;43.89;93644.38;5022398;28;8756;-62
2023/08/30 10:34:14;;;;;;;;;;;;;;;27.23;44.14;93637.19;5022799;28;7015;-61
2023/08/30 10:37:11;;;;;;;;;;;;;;;27.24;44.01;93638.66;5030308;28;9437;-61
2023/08/30 10:39:48;;;;;;;;;;;;;;;27.23;44.00;93637.91;5018770;28;7570;-61
2023/08/30 10:42:28;;;;;;;;;;;;;;;27.23;43.84;93631.66;5000043;28;9191;-61
2023/08/30 10:45:23;;;;;;;;;;;;;;;27.26;43.74;93636.84;5009531;28;9252;-61
2023/08/30 10:47:55;;;;;;;;;;;;;;;27.30;43.76;93633.72;5028435;28;7260;-62
2023/08/30 10:50:30;;;;;;;;;;;;;;;27.25;43.58;93627.06;5022693;28;7002;-62
2023/08/30 10:52:58;;;;;;;;;;;;;;;27.28;43.60;93630.75;5015672;28;7291;-62
2023/08/30 10:55:28;;;;;;;;;;;;;;;27.29;43.46;93624.72;5038258;28;7458;-62
2023/08/30 10:58:06;;;;;;;;;;;;;;;27.30;43.36;93615.13;5046378;28;6986;-61
2023/08/30 11:00:32;;;;;;;;;;;;;;;27.30;43.37;93623.44;5060059;28;7260;-62
2023/08/30 11:03:10;;;;;;;;;;;;;;;27.28;43.33;93620.47;5066976;28;7390;-61
2023/08/30 11:05:42;;;;;;;;;;;;;;;27.33;43.24;93619.59;5054828;28;7372;-61
2023/08/30 11:08:18;;;;;;;;;;;;;;;27.35;43.41;93624.56;5045329;28;9140;-61
2023/08/30 11:11:08;;;;;;;;;;;;;;;27.36;43.04;93623.31;5049677;28;8927;-61
2023/08/30 11:13:36;;;;;;;;;;;;;;;27.37;43.17;93620.03;5062632;28;7449;-61
2023/08/30 11:16:04;;;;;;;;;;;;;;;27.37;42.95;93617.25;5060774;28;9283;-61
2023/08/30 11:18:41;;;;;;;;;;;;;;;27.36;43.16;93621.28;5038792;28;7199;-61
2023/08/30 11:21:12;;;;;;;;;;;;;;;27.35;42.86;93622.59;5061389;28;7263;-61
2023/08/30 11:23:39;;;;;;;;;;;;;;;27.36;43.31;93612.28;5041454;28;7240;-61
2023/08/30 11:26:12;;;;;;;;;;;;;;;27.36;43.07;93607.47;5052437;28;7271;-61
2023/08/30 11:28:45;;;;;;;;;;;;;;;27.37;42.33;93608.97;5048472;28;7495;-61
2023/08/30 11:31:27;;;;;;;;;;;;;;;27.35;43.35;93606.00;5039749;28;7145;-61
2023/08/30 11:33:57;;;;;;;;;;;;;;;27.38;43.05;93610.44;5056001;28;8775;-61
2023/08/30 11:36:37;;;;;;;;;;;;;;;27.40;42.91;93605.13;5046616;28;9200;-61
2023/08/30 11:39:16;;;;;;;;;;;;;;;27.41;42.28;93603.09;5074434;28;7142;-62
2023/08/30 11:41:50;;;;;;;;;;;;;;;27.41;42.46;93612.13;5060859;28;7263;-62
2023/08/30 11:44:19;;;;;;;;;;;;;;;27.40;42.40;93607.16;5045992;28;7694;-62
2023/08/30 11:46:46;;;;;;;;;;;;;;;27.41;42.31;93601.06;5063932;28;6997;-62
2023/08/30 11:49:30;;;;;;;;;;;;;;;27.43;42.23;93612.31;5054228;28;6977;-62
2023/08/30 11:51:59;;;;;;;;;;;;;;;27.43;42.47;93604.03;5057479;28;7180;-62
2023/08/30 11:54:27;;;;;;;;;;;;;;;27.44;41.92;93613.81;5062536;28;6988;-62
2023/08/30 11:56:54;;;;;;;;;;;;;;;27.42;42.20;93610.84;5038319;28;7210;-62
2023/08/30 11:59:25;;;;;;;;;;;;;;;27.43;42.14;93606.78;5055568;28;7296;-62
2023/08/30 12:01:54;;;;;;;;;;;;;;;27.42;42.39;93610.84;5042129;28;8446;-62
2023/08/30 12:04:23;;;;;;;;;;;;;;;27.43;42.11;93614.34;5054927;28;7171;-62
2023/08/30 12:07:24;;;;;;;;;;;;;;;27.42;42.22;93621.91;5036474;28;7131;-62
2023/08/30 12:10:04;;;;;;;;;;;;;;;27.42;42.25;93621.16;4984312;28;8844;-61
2023/08/30 12:13:15;;;;;;;;;;;;;;;27.43;42.08;93625.38;4976430;28;7108;-62
2023/08/30 12:15:55;;;;;;;;;;;;;;;27.45;42.22;93628.34;4943654;28;7332;-61
2023/08/30 12:18:29;;;;;;;;;;;;;;;27.45;42.06;93620.81;4931605;28;6985;-62
2023/08/30 12:21:00;;;;;;;;;;;;;;;27.46;42.29;93624.31;4951865;28;9204;-62
2023/08/30 12:23:31;;;;;;;;;;;;;;;27.47;42.48;93621.00;4951587;28;8190;-62
2023/08/30 12:26:05;;;;;;;;;;;;;;;27.50;42.09;93621.94;4948228;28;7206;-61
2023/08/30 12:28:39;;;;;;;;;;;;;;;27.49;42.24;93631.53;4920853;29;7014;-62
2023/08/30 12:31:06;;;;;;;;;;;;;;;27.50;42.26;93630.22;4950566;28;6965;-62
2023/08/30 12:33:40;;;;;;;;;;;;;;;27.47;42.12;93621.00;4948987;28;6959;-62
2023/08/30 12:36:17;;;;;;;;;;;;;;;27.49;42.48;93623.97;4950804;28;9116;-62
2023/08/30 12:38:53;;;;;;;;;;;;;;;27.50;42.10;93617.16;4926600;28;8070;-61
2023/08/30 12:41:23;;;;;;;;;;;;;;;27.53;41.70;93616.06;4942470;28;6982;-62
2023/08/30 12:44:05;;;;;;;;;;;;;;;27.52;41.92;93616.63;4944338;28;7250;-62
2023/08/30 12:46:47;;;;;;;;;;;;;;;27.54;41.65;93623.09;4978867;28;9086;-58
2023/08/30 12:49:18;;;;;;;;;;;;;;;27.51;41.87;93613.09;4982278;28;7482;-58
2023/08/30 12:51:47;;;;;;;;;;;;;;;27.55;42.28;93610.75;5006338;28;8922;-58
2023/08/30 12:54:13;;;;;;;;;;;;;;;27.54;42.13;93605.75;5053709;28;7231;-58
2023/08/30 12:56:40;;;;;;;;;;;;;;;27.60;42.17;93609.13;5058966;28;7249;-58
2023/08/30 12:59:06;;;;;;;;;;;;;;;27.56;41.61;93603.94;5050652;28;9171;-58
2023/08/30 13:01:34;;;;;;;;;;;;;;;27.58;41.76;93609.66;5054736;28;8008;-58
2023/08/30 13:04:03;;;;;;;;;;;;;;;27.60;41.78;93607.09;5045146;28;6999;-57
2023/08/30 13:06:29;;;;;;;;;;;;;;;27.62;42.21;93609.34;5034151;28;9116;-57
2023/08/30 13:09:03;;;;;;;;;;;;;;;27.64;41.78;93604.72;5028428;28;9173;-58
2023/08/30 13:11:32;;;;;;;;;;;;;;;27.64;41.52;93596.44;5039938;28;6979;-58
2023/08/30 13:14:04;;;;;;;;;;;;;;;27.65;41.80;93611.00;5056561;28;9077;-58
2023/08/30 13:16:36;;;;;;;;;;;;;;;27.66;42.15;93611.75;5040724;28;7361;-58
2023/08/30 13:19:02;;;;;;;;;;;;;;;27.69;42.01;93607.91;5043674;28;7263;-58
2023/08/30 13:21:28;;;;;;;;;;;;;;;27.69;41.93;93605.13;5045760;28;9149;-57
2023/08/30 13:23:57;;;;;;;;;;;;;;;27.74;41.87;93596.69;5052632;28;7309;-58
2023/08/30 13:26:23;;;;;;;;;;;;;;;27.78;41.81;93599.84;5056802;28;9098;-58
2023/08/30 13:28:49;;;;;;;;;;;;;;;27.80;42.01;93600.03;5055008;28;7183;-58
2023/08/30 13:31:17;;;;;;;;;;;;;;;27.84;41.93;93594.19;5039225;28;7070;-58
2023/08/30 13:33:43;;;;;;;;;;;;;;;27.88;42.01;93589.78;5037793;28;7068;-58
2023/08/30 13:36:10;;;;;;;;;;;;;;;27.88;41.61;93595.31;5044061;28;9111;-58
2023/08/30 13:38:38;;;;;;;;;;;;;;;27.86;42.03;93588.84;5051234;28;7021;-58